»·PEaware :: SWA1080 KSNA-KPHX

SWA1080 :: KSNA-KPHX

FLIGHT INFORMATION

Flight Status: Arrived
Operator:
Southwest Airlines
More flights by this operator :: More flights under this callsign
Pilot: Alex S. (7186)
Aircraft: BOEING 737-300
(B733)
More flights by this aircraft type
Origin: KSNA John Wayne-Orange Co
United States
Destination: KPHX Phoenix Sky Harbor Intl
United States
More flights between these airports :: More routes between these airports
Route: +PIGGN2 CNERY BLH HYDRR1
File this flight plan on PilotEdge
Remarks:
Altitude:
(Current/Filed)
27,000ft
Speed:
(Current/Filed)
426kts
Departed: 06-Oct-18 08:46 PM
Arrived: 06-Oct-18 09:39 PM
Distance/Time
Traveled:
294nm/0:53
Distance/Time
To Go:
Arrived

Flight Plot

Page will automatically refresh every two minutes.

Flight plan parsing failed; only flown route is shown


Map Options




Map Legend


Flown Route
Filed Route
Departure Airport
Arrival Airport
Navaid (VOR, NDB)
Fix

Horizontal Profiles

Position Reports

Time Latitude Longitude Heading Altitude Ground
Speed
06-Oct-18 20:04 33.677525 -117.863409 118 63ft 0kts
06-Oct-18 20:05 33.677525 -117.863409 118 63ft 0kts
06-Oct-18 20:06 33.677525 -117.863409 118 63ft 0kts
06-Oct-18 20:07 33.677525 -117.863409 118 63ft 0kts
06-Oct-18 20:08 33.677525 -117.863409 118 63ft 0kts
06-Oct-18 20:09 33.677525 -117.863409 118 63ft 0kts
06-Oct-18 20:10 33.677525 -117.863409 118 63ft 0kts
06-Oct-18 20:11 33.677525 -117.863409 118 63ft 0kts
06-Oct-18 20:12 33.677525 -117.863409 118 63ft 0kts
06-Oct-18 20:13 33.677525 -117.863409 118 63ft 0kts
06-Oct-18 20:14 33.677525 -117.863409 118 63ft 0kts
06-Oct-18 20:15 33.677525 -117.863409 118 63ft 0kts
06-Oct-18 20:16 33.677525 -117.863409 118 63ft 0kts
06-Oct-18 20:17 33.677525 -117.863409 118 63ft 0kts
06-Oct-18 20:18 33.677525 -117.863409 118 63ft 0kts
06-Oct-18 20:19 33.677525 -117.863409 118 63ft 0kts
06-Oct-18 20:20 33.677525 -117.863409 118 63ft 0kts
06-Oct-18 20:21 33.677525 -117.863409 118 63ft 0kts
06-Oct-18 20:22 33.677525 -117.863409 118 63ft 0kts
06-Oct-18 20:23 33.677525 -117.863409 118 63ft 0kts
06-Oct-18 20:24 33.677525 -117.863409 118 63ft 0kts
06-Oct-18 20:25 33.677525 -117.863409 118 63ft 0kts
06-Oct-18 20:26 33.677525 -117.863409 118 63ft 0kts
06-Oct-18 20:27 33.677525 -117.863409 118 63ft 0kts
06-Oct-18 20:28 33.677525 -117.863409 118 63ft 0kts
06-Oct-18 20:29 33.677525 -117.863409 118 63ft 0kts
06-Oct-18 20:30 33.677525 -117.863409 118 63ft 0kts
06-Oct-18 20:31 33.677525 -117.863409 118 63ft 0kts
06-Oct-18 20:32 33.677525 -117.863409 118 63ft 0kts
06-Oct-18 20:33 33.677525 -117.863409 118 63ft 0kts
06-Oct-18 20:34 33.677525 -117.863409 118 63ft 0kts
06-Oct-18 20:35 33.677525 -117.863409 118 63ft 0kts
06-Oct-18 20:36 33.677525 -117.863409 118 63ft 0kts
06-Oct-18 20:37 33.677525 -117.863409 118 63ft 0kts
06-Oct-18 20:38 33.677525 -117.863409 118 63ft 0kts
06-Oct-18 20:39 33.677525 -117.863409 118 63ft 0kts
06-Oct-18 20:40 33.677525 -117.863409 118 63ft 0kts
06-Oct-18 20:41 33.677661 -117.863710 118 63ft 2kts
06-Oct-18 20:42 33.677533 -117.864309 22 63ft 2kts
06-Oct-18 20:43 33.677451 -117.864354 27 63ft 0kts
06-Oct-18 20:44 33.677451 -117.864354 27 63ft 0kts
06-Oct-18 20:45 33.677491 -117.864328 28 63ft 2kts
06-Oct-18 20:46 33.679908 -117.862794 23 63ft 5kts
06-Oct-18 20:47 33.681221 -117.864342 298 63ft 12kts
06-Oct-18 20:48 33.679909 -117.866160 207 63ft 60kts
06-Oct-18 20:49 33.643598 -117.889752 196 1715ft 175kts
06-Oct-18 20:50 33.587363 -117.897510 189 3805ft 234kts
06-Oct-18 20:51 33.519469 -117.866645 154 6318ft 292kts
06-Oct-18 20:52 33.477273 -117.779806 103 9317ft 317kts
06-Oct-18 20:53 33.491984 -117.674422 54 11071ft 356kts
06-Oct-18 20:54 33.499241 -117.588039 91 13139ft 388kts
06-Oct-18 20:55 33.507263 -117.461451 79 15620ft 408kts
06-Oct-18 20:56 33.516354 -117.326382 79 17745ft 434kts
06-Oct-18 20:57 33.525230 -117.189262 79 19795ft 453kts
06-Oct-18 20:58 33.534446 -117.045542 77 21910ft 467kts
06-Oct-18 20:59 33.538322 -116.984502 77 22729ft 473kts
06-Oct-18 21:00 33.542888 -116.850863 79 24403ft 487kts
06-Oct-18 21:01 33.548365 -116.690101 81 26191ft 502kts
06-Oct-18 21:02 33.553674 -116.523811 80 26766ft 489kts
06-Oct-18 21:03 33.558681 -116.367189 81 26694ft 484kts
06-Oct-18 21:04 33.563354 -116.210608 84 26699ft 489kts
06-Oct-18 21:05 33.567497 -116.064831 83 26702ft 490kts
06-Oct-18 21:06 33.570766 -115.938860 84 26703ft 488kts
06-Oct-18 21:07 33.574904 -115.780965 83 26695ft 487kts
06-Oct-18 21:08 33.578948 -115.619383 85 26693ft 485kts
06-Oct-18 21:09 33.582875 -115.457936 85 26698ft 485kts
06-Oct-18 21:10 33.586379 -115.298010 86 26674ft 485kts
06-Oct-18 21:11 33.589767 -115.139397 87 26695ft 487kts
06-Oct-18 21:12 33.592854 -114.978441 87 26693ft 487kts
06-Oct-18 21:13 33.595862 -114.816253 88 25027ft 486kts
06-Oct-18 21:14 33.577464 -114.661816 108 24652ft 478kts
06-Oct-18 21:15 33.546730 -114.506842 106 24694ft 481kts
06-Oct-18 21:16 33.516457 -114.351902 106 24692ft 481kts
06-Oct-18 21:17 33.490247 -114.218324 107 24701ft 477kts
06-Oct-18 21:18 33.461329 -114.072622 108 24695ft 472kts
06-Oct-18 21:19 33.430594 -113.921287 107 24678ft 474kts
06-Oct-18 21:20 33.403388 -113.785791 107 23705ft 478kts
06-Oct-18 21:21 33.398709 -113.762493 108 23601ft 475kts
06-Oct-18 21:22 33.383180 -113.685726 109 23349ft 471kts
06-Oct-18 21:23 33.362728 -113.585043 109 22310ft 469kts
06-Oct-18 21:24 33.333144 -113.437643 106 20241ft 446kts
06-Oct-18 21:25 33.308984 -113.296818 106 18190ft 425kts
06-Oct-18 21:26 33.288671 -113.169291 104 16832ft 389kts
06-Oct-18 21:27 33.274432 -113.047108 91 15228ft 371kts
06-Oct-18 21:28 33.277988 -112.926427 90 13071ft 366kts
06-Oct-18 21:29 33.284292 -112.811221 68 11900ft 333kts
06-Oct-18 21:30 33.321204 -112.712766 66 10971ft 320kts
06-Oct-18 21:31 33.355408 -112.622920 66 9968ft 293kts
06-Oct-18 21:32 33.387646 -112.538507 66 9006ft 284kts
06-Oct-18 21:33 33.416139 -112.460584 68 7899ft 264kts
06-Oct-18 21:34 33.428666 -112.381367 92 6511ft 248kts
06-Oct-18 21:35 33.428688 -112.304986 93 5285ft 241kts
06-Oct-18 21:36 33.437340 -112.233729 81 4269ft 234kts
06-Oct-18 21:37 33.441187 -112.164998 94 3442ft 213kts
06-Oct-18 21:38 33.440860 -112.101669 92 2373ft 181kts
06-Oct-18 21:39 33.440835 -112.053615 92 1588ft 145kts
06-Oct-18 21:40 33.440811 -112.012278 89 1116ft 116kts
06-Oct-18 21:41 33.439611 -112.004705 183 1116ft 10kts
06-Oct-18 21:42 33.439012 -112.000918 88 1116ft 17kts
06-Oct-18 21:43 33.438035 -111.998299 178 1116ft 11kts
06-Oct-18 21:44 33.437547 -111.997498 89 1116ft 2kts
06-Oct-18 21:45 33.437548 -111.997353 89 1116ft 0kts
06-Oct-18 21:46 33.437548 -111.997353 89 1116ft 0kts

Navigation Log

Ident Type
Flight plan parsing failed, navigation log unavailable